Погода Трушевона 2 недели

Брестская область, Белоруссия

18 - 31 июля
  • 18июля
    Сегодня
    +16°
    +27°
    Ясно и безоблачно
    ВремяПогодаТемператураВлажностьДавлениеВетер, м/сВероятность осадков
    00:00Ясно и безоблачно+22°C92 %751 мм0.8 м/с2 %
    03:00Ясно и безоблачно+21°C86 %751 мм0.8 м/с2 %
    06:00Облачно с прояснениями+20°C83 %751 мм1.0 м/с41 %
    09:00Облачно с прояснениями+21°C73 %751 мм1.8 м/с17 %
    12:00Небольшая облачность+24°C63 %751 мм2.3 м/с29 %
    15:00Ясно и безоблачно+26°C54 %751 мм3.0 м/с20 %
    18:00Ясно и безоблачно+26°C51 %751 мм3.3 м/с15 %
    21:00Ясно и безоблачно+23°C65 %752 мм1.7 м/с2 %
  • 19июля
    Пятница
    +14°
    +25°
    Ясно и безоблачно
    ВремяПогодаТемператураВлажностьДавлениеВетер, м/сВероятность осадков
    00:00Ясно и безоблачно+19°C78 %752 мм0.8 м/с2 %
    03:00Ясно и безоблачно+17°C85 %752 мм0.9 м/с2 %
    06:00Практически безоблачно+16°C83 %752 мм0.9 м/с2 %
    09:00Практически безоблачно+20°C71 %752 мм1.9 м/с2 %
    12:00Облачно с прояснениями+23°C50 %752 мм2.9 м/с1 %
    15:00Ясно и безоблачно+25°C44 %751 мм3.1 м/с1 %
    18:00Ясно и безоблачно+25°C49 %750 мм2.9 м/с2 %
    21:00Ясно и безоблачно+22°C64 %749 мм1.1 м/с2 %
  • 20июля
    Суббота
    +14°
    +25°
    Ясно и безоблачно
    ВремяПогодаТемператураВлажностьДавлениеВетер, м/сВероятность осадков
    00:00Ясно и безоблачно+18°C80 %749 мм0.5 м/с2 %
    03:00Ясно и безоблачно+16°C78 %749 мм0.7 м/с2 %
    06:00Ясно и безоблачно+15°C77 %748 мм0.6 м/с2 %
    09:00Ясно и безоблачно+20°C63 %749 мм1.3 м/с2 %
    12:00Практически безоблачно+23°C53 %748 мм2.5 м/с2 %
    15:00Ясно и безоблачно+25°C41 %747 мм2.6 м/с2 %
    18:00Ясно и безоблачно+25°C41 %746 мм2.4 м/с2 %
    21:00Ясно и безоблачно+22°C66 %746 мм1.0 м/с2 %
  • 21июля
    Воскресенье
    +15°
    +27°
    Небольшая облачность
    ВремяПогодаТемператураВлажностьДавлениеВетер, м/сВероятность осадков
    00:00Ясно и безоблачно+17°C79 %746 мм0.3 м/с2 %
    03:00Ясно и безоблачно+16°C85 %746 мм0.2 м/с2 %
    06:00Ясно и безоблачно+15°C86 %745 мм0.1 м/с2 %
    09:00Ясно и безоблачно+21°C63 %746 мм0.6 м/с2 %
    12:00Ясно и безоблачно+25°C47 %746 мм1.9 м/с4 %
    15:00Небольшая облачность+26°C40 %745 мм1.9 м/с14 %
    18:00Практически безоблачно+26°C38 %744 мм2.1 м/с6 %
    21:00Облачно с прояснениями+24°C65 %744 мм1.0 м/с2 %
  • 22июля
    Понедельник
    +16°
    +28°
    Практически безоблачно
    ВремяПогодаТемператураВлажностьДавлениеВетер, м/сВероятность осадков
    00:00Ясно и безоблачно+20°C72 %744 мм0.5 м/с2 %
    03:00Ясно и безоблачно+19°C74 %744 мм0.1 м/с2 %
    06:00Ясно и безоблачно+16°C80 %744 мм0.3 м/с2 %
    09:00Ясно и безоблачно+22°C63 %744 мм0.5 м/с2 %
    12:00Практически безоблачно+27°C40 %744 мм2.1 м/с3 %
    15:00Практически безоблачно+28°C38 %744 мм1.8 м/с15 %
    18:00Ясно и безоблачно+27°C39 %744 мм1.9 м/с13 %
    21:00Ясно и безоблачно+26°C53 %744 мм0.4 м/с10 %
Мы используем cookies
Соглашаюсь